Time;durP1;ratioP1;P1;durP2;ratioP2;P2;SDS_P1;SDS_P2;PMS_P1;PMS_P2;Temp;Humidity;BMP_temperature;BMP_pressure;BME280_temperature;BME280_humidity;BME280_pressure;Samples;Min_cycle;Max_cycle;Signal;HPM_P1;HPM_P2
2023/03/05 00:01:49;;;;;;;;;;;3.50;99.90;;;;;;5057222;28;19921;-78
2023/03/05 00:04:15;;;;;;;;;;;3.50;99.90;;;;;;5083610;28;19920;-78
2023/03/05 00:06:40;;;;;;;;;;;3.50;99.90;;;;;;5070538;28;19924;-78
2023/03/05 00:09:06;;;;;;;;;;;3.60;99.90;;;;;;5074804;28;19928;-78
2023/03/05 00:11:32;;;;;;;;;;;3.50;99.90;;;;;;5068670;28;20007;-78
2023/03/05 00:13:58;;;;;;;;;;;3.50;99.90;;;;;;5070468;28;19932;-78
2023/03/05 00:16:27;;;;;;;;;;;3.60;99.90;;;;;;5052929;28;19932;-78
2023/03/05 00:18:53;;;;;;;;;;;3.60;99.90;;;;;;5066516;28;19924;-78
2023/03/05 00:21:27;;;;;;;;;;;3.60;99.90;;;;;;5069830;28;20007;-78
2023/03/05 00:23:53;;;;;;;;;;;3.60;99.90;;;;;;5072257;28;19920;-78
2023/03/05 00:26:19;;;;;;;;;;;3.50;99.90;;;;;;5069926;28;20192;-78
2023/03/05 00:28:49;;;;;;;;;;;3.50;99.90;;;;;;5068778;28;20502;-78
2023/03/05 00:31:21;;;;;;;;;;;3.50;99.90;;;;;;5067092;28;19931;-78
2023/03/05 00:33:54;;;;;;;;;;;3.50;99.90;;;;;;5055531;28;19993;-78
2023/03/05 00:36:19;;;;;;;;;;;3.50;99.90;;;;;;5063958;28;20287;-78
2023/03/05 00:38:45;;;;;;;;;;;3.50;99.90;;;;;;5072819;28;19939;-78
2023/03/05 00:41:11;;;;;;;;;;;3.50;99.90;;;;;;5070865;28;19927;-78
2023/03/05 00:43:36;;;;;;;;;;;3.50;99.90;;;;;;5068993;28;20378;-78
2023/03/05 00:46:02;;;;;;;;;;;3.50;99.90;;;;;;5068456;28;20263;-78
2023/03/05 00:48:27;;;;;;;;;;;3.40;99.90;;;;;;5054549;28;19975;-78
2023/03/05 00:50:53;;;;;;;;;;;3.40;99.90;;;;;;5054552;28;19921;-78
2023/03/05 00:53:18;;;;;;;;;;;3.40;99.90;;;;;;5057044;28;19954;-78
2023/03/05 00:55:44;;;;;;;;;;;3.40;99.90;;;;;;5089222;28;19943;-78
2023/03/05 00:58:10;;;;;;;;;;;3.40;99.90;;;;;;5048422;28;19971;-78
2023/03/05 01:00:35;;;;;;;;;;;3.40;99.90;;;;;;5067579;28;19924;-78
2023/03/05 01:03:01;;;;;;;;;;;3.40;99.90;;;;;;5065953;28;19965;-78
2023/03/05 01:05:26;;;;;;;;;;;3.40;99.90;;;;;;5067160;28;19989;-78
2023/03/05 01:07:52;;;;;;;;;;;3.40;99.90;;;;;;5069853;28;20416;-78
2023/03/05 01:10:18;;;;;;;;;;;3.40;99.90;;;;;;5046877;28;19947;-78
2023/03/05 01:12:44;;;;;;;;;;;3.50;99.90;;;;;;5063827;28;20066;-78
2023/03/05 01:15:09;;;;;;;;;;;3.40;99.90;;;;;;5068670;28;19920;-79
2023/03/05 01:17:35;;;;;;;;;;;3.50;99.90;;;;;;5061657;28;19935;-79
2023/03/05 01:20:00;;;;;;;;;;;3.50;99.90;;;;;;5062358;28;19921;-79
2023/03/05 01:22:26;;;;;;;;;;;3.50;99.90;;;;;;5064628;28;19964;-79
2023/03/05 01:24:52;;;;;;;;;;;3.50;99.90;;;;;;5071048;28;19921;-78
2023/03/05 01:27:17;;;;;;;;;;;3.50;99.90;;;;;;5066494;28;21051;-78
2023/03/05 01:29:43;;;;;;;;;;;3.50;99.90;;;;;;5069067;28;19980;-78
2023/03/05 01:32:08;;;;;;;;;;;3.50;99.90;;;;;;5072555;28;19927;-78
2023/03/05 01:34:35;;;;;;;;;;;3.50;99.90;;;;;;5092322;28;20011;-78
2023/03/05 01:37:00;;;;;;;;;;;3.50;99.90;;;;;;5092148;28;19924;-78
2023/03/05 01:39:26;;;;;;;;;;;3.50;99.90;;;;;;5074823;28;19927;-78
2023/03/05 01:41:51;;;;;;;;;;;3.50;99.90;;;;;;5075417;28;19920;-78
2023/03/05 01:44:22;;;;;;;;;;;3.50;99.90;;;;;;5057394;28;20271;-78
2023/03/05 01:46:47;;;;;;;;;;;3.40;99.90;;;;;;5075430;28;20009;-78
2023/03/05 01:49:18;;;;;;;;;;;3.40;99.90;;;;;;5072828;28;19979;-78
2023/03/05 01:52:05;;;;;;;;;;;3.40;99.90;;;;;;5051739;28;20015;-78
2023/03/05 01:54:42;;;;;;;;;;;3.40;99.90;;;;;;5070044;28;19920;-78
2023/03/05 01:57:10;;;;;;;;;;;3.40;99.90;;;;;;5069463;28;20386;-78
2023/03/05 01:59:36;;;;;;;;;;;3.30;99.90;;;;;;5085974;28;19920;-78
2023/03/05 02:02:03;;;;;;;;;;;3.30;99.90;;;;;;5072371;28;19939;-79
2023/03/05 02:04:31;;;;;;;;;;;3.30;99.90;;;;;;5067590;28;20373;-78
2023/03/05 02:06:57;;;;;;;;;;;3.30;99.90;;;;;;5031524;28;20924;-78
2023/03/05 02:09:23;;;;;;;;;;;3.20;99.90;;;;;;5033526;28;20018;-78
2023/03/05 02:11:49;;;;;;;;;;;3.10;99.90;;;;;;5048913;28;20374;-78
2023/03/05 02:14:14;;;;;;;;;;;3.10;99.90;;;;;;5063956;28;20389;-78
2023/03/05 02:16:41;;;;;;;;;;;3.00;99.90;;;;;;5065478;28;19921;-78
2023/03/05 02:19:08;;;;;;;;;;;2.90;99.90;;;;;;5063736;28;19928;-78
2023/03/05 02:21:41;;;;;;;;;;;2.80;99.90;;;;;;5064961;28;19928;-78
2023/03/05 02:24:08;;;;;;;;;;;2.80;99.90;;;;;;5070210;28;19978;-78
2023/03/05 02:26:34;;;;;;;;;;;2.80;99.90;;;;;;5041825;28;19920;-78
2023/03/05 02:29:00;;;;;;;;;;;2.80;99.90;;;;;;5048341;28;19927;-78
2023/03/05 02:31:26;;;;;;;;;;;2.70;99.90;;;;;;5066177;28;19920;-78
2023/03/05 02:33:52;;;;;;;;;;;2.70;99.90;;;;;;5069982;28;20254;-78
2023/03/05 02:36:18;;;;;;;;;;;2.70;99.90;;;;;;5075331;28;19970;-78
2023/03/05 02:38:44;;;;;;;;;;;2.70;99.90;;;;;;5077895;28;19928;-78
2023/03/05 02:41:10;;;;;;;;;;;2.70;99.90;;;;;;5091132;28;20005;-78
2023/03/05 02:43:36;;;;;;;;;;;2.70;99.90;;;;;;5080540;28;19946;-78
2023/03/05 02:46:02;;;;;;;;;;;2.70;99.90;;;;;;5038309;28;19920;-78
2023/03/05 02:48:28;;;;;;;;;;;2.70;99.90;;;;;;5074198;28;20349;-78
2023/03/05 02:50:54;;;;;;;;;;;2.70;99.90;;;;;;5074253;28;19927;-78
2023/03/05 02:53:21;;;;;;;;;;;2.80;99.90;;;;;;5073824;28;19924;-78
2023/03/05 02:55:47;;;;;;;;;;;2.80;99.90;;;;;;5073396;28;19920;-78
2023/03/05 02:58:13;;;;;;;;;;;2.80;99.90;;;;;;5054008;28;19928;-78
2023/03/05 03:00:38;;;;;;;;;;;2.80;99.90;;;;;;5067533;28;20239;-78
2023/03/05 03:03:04;;;;;;;;;;;2.90;99.90;;;;;;5069463;28;19944;-80
2023/03/05 03:05:29;;;;;;;;;;;2.90;99.90;;;;;;5046644;28;20520;-78
2023/03/05 03:07:55;;;;;;;;;;;2.90;99.90;;;;;;5064193;28;19927;-78
2023/03/05 03:10:20;;;;;;;;;;;2.90;99.90;;;;;;5062472;28;19921;-77
2023/03/05 03:12:46;;;;;;;;;;;3.00;99.90;;;;;;5049249;28;19920;-78
2023/03/05 03:15:13;;;;;;;;;;;3.00;99.90;;;;;;5066018;28;19943;-77
2023/03/05 03:17:38;;;;;;;;;;;3.00;99.90;;;;;;5064836;28;19924;-78
2023/03/05 03:20:07;;;;;;;;;;;2.90;99.90;;;;;;5065255;28;20027;-77
2023/03/05 03:22:33;;;;;;;;;;;3.00;99.90;;;;;;5067800;28;19928;-78
2023/03/05 03:24:59;;;;;;;;;;;3.00;99.90;;;;;;5067196;28;19920;-78
2023/03/05 03:27:24;;;;;;;;;;;3.00;99.90;;;;;;5064140;28;19920;-78
2023/03/05 03:29:50;;;;;;;;;;;3.00;99.90;;;;;;5063481;28;19990;-78
2023/03/05 03:32:15;;;;;;;;;;;3.00;99.90;;;;;;5047287;28;19974;-78
2023/03/05 03:34:41;;;;;;;;;;;3.00;99.90;;;;;;5065139;28;19920;-77
2023/03/05 03:37:07;;;;;;;;;;;3.00;99.90;;;;;;5030495;28;19967;-77
2023/03/05 03:39:33;;;;;;;;;;;3.00;99.90;;;;;;5040212;28;19920;-77
2023/03/05 03:41:59;;;;;;;;;;;3.00;99.90;;;;;;5053727;28;20039;-77
2023/03/05 03:44:24;;;;;;;;;;;3.00;99.90;;;;;;5063097;28;20296;-77
2023/03/05 03:46:50;;;;;;;;;;;3.00;99.90;;;;;;5064368;28;19978;-77
2023/03/05 03:49:18;;;;;;;;;;;3.00;99.90;;;;;;5046631;28;19991;-77
2023/03/05 03:51:43;;;;;;;;;;;3.00;99.90;;;;;;5066623;28;19974;-78
2023/03/05 03:54:09;;;;;;;;;;;3.00;99.90;;;;;;5027277;28;19925;-78
2023/03/05 03:56:34;;;;;;;;;;;3.00;99.90;;;;;;5034192;28;19995;-78
2023/03/05 03:59:00;;;;;;;;;;;3.10;99.90;;;;;;5072575;28;19920;-78
2023/03/05 04:01:25;;;;;;;;;;;3.10;99.90;;;;;;5072428;28;19987;-78
2023/03/05 04:03:51;;;;;;;;;;;3.10;99.90;;;;;;5072129;28;19927;-78
2023/03/05 04:06:16;;;;;;;;;;;3.10;99.90;;;;;;5072512;28;19921;-77
2023/03/05 04:08:42;;;;;;;;;;;3.10;99.90;;;;;;5055437;28;19921;-78
2023/03/05 04:11:07;;;;;;;;;;;3.10;99.90;;;;;;5073329;28;19946;-78
2023/03/05 04:13:33;;;;;;;;;;;3.00;99.90;;;;;;5039175;28;20369;-78
2023/03/05 04:15:59;;;;;;;;;;;3.00;99.90;;;;;;5090663;28;19934;-78
2023/03/05 04:18:27;;;;;;;;;;;3.00;99.90;;;;;;5055254;28;19921;-78
2023/03/05 04:20:52;;;;;;;;;;;3.00;99.90;;;;;;5072299;28;19927;-78
2023/03/05 04:23:18;;;;;;;;;;;3.00;99.90;;;;;;5072322;28;20015;-78
2023/03/05 04:25:43;;;;;;;;;;;3.00;99.90;;;;;;5068222;28;20004;-78
2023/03/05 04:28:09;;;;;;;;;;;2.90;99.90;;;;;;5060615;28;19936;-78
2023/03/05 04:30:34;;;;;;;;;;;2.90;99.90;;;;;;5025457;28;19974;-78
2023/03/05 04:33:00;;;;;;;;;;;2.90;99.90;;;;;;5062221;28;19955;-78
2023/03/05 04:35:25;;;;;;;;;;;2.90;99.90;;;;;;5062204;28;20286;-79
2023/03/05 04:37:51;;;;;;;;;;;2.90;99.90;;;;;;5060717;28;19921;-79
2023/03/05 04:40:17;;;;;;;;;;;3.00;99.90;;;;;;5048276;28;20669;-79
2023/03/05 04:42:43;;;;;;;;;;;2.90;99.90;;;;;;5051335;28;19921;-79
2023/03/05 04:45:09;;;;;;;;;;;2.90;99.90;;;;;;5066745;28;19932;-78
2023/03/05 04:47:35;;;;;;;;;;;3.00;99.90;;;;;;5044466;28;20422;-78
2023/03/05 04:50:01;;;;;;;;;;;3.00;99.90;;;;;;5065118;28;19932;-78
2023/03/05 04:52:26;;;;;;;;;;;3.00;99.90;;;;;;5063804;28;20014;-78
2023/03/05 04:54:53;;;;;;;;;;;3.00;99.90;;;;;;5065844;28;19960;-78
2023/03/05 04:57:18;;;;;;;;;;;3.00;99.90;;;;;;5046579;28;19955;-78
2023/03/05 04:59:44;;;;;;;;;;;3.00;99.90;;;;;;5066791;28;19955;-78
2023/03/05 05:02:10;;;;;;;;;;;3.00;99.90;;;;;;5066230;28;19991;-79
2023/03/05 05:04:35;;;;;;;;;;;3.10;99.90;;;;;;5029518;28;20542;-79
2023/03/05 05:07:01;;;;;;;;;;;3.00;99.90;;;;;;5048837;28;19932;-79
2023/03/05 05:09:26;;;;;;;;;;;3.00;99.90;;;;;;5063940;28;19935;-79
2023/03/05 05:11:52;;;;;;;;;;;3.00;99.90;;;;;;5064498;28;20370;-79
2023/03/05 05:14:17;;;;;;;;;;;3.00;99.90;;;;;;5066657;28;20425;-79
2023/03/05 05:16:43;;;;;;;;;;;3.00;99.90;;;;;;5051647;28;19921;-79
2023/03/05 05:19:08;;;;;;;;;;;3.00;99.90;;;;;;5075320;28;19925;-79
2023/03/05 05:21:34;;;;;;;;;;;3.00;99.90;;;;;;5049087;28;20434;-79
2023/03/05 05:23:59;;;;;;;;;;;2.90;99.90;;;;;;5066582;28;20255;-79
2023/03/05 05:26:26;;;;;;;;;;;3.00;99.90;;;;;;5068322;28;19921;-79
2023/03/05 05:28:52;;;;;;;;;;;2.90;99.90;;;;;;5045782;28;21363;-79
2023/03/05 05:31:18;;;;;;;;;;;2.90;99.90;;;;;;5065597;28;20438;-79
2023/03/05 05:33:43;;;;;;;;;;;3.00;99.90;;;;;;5048129;28;21222;-79
2023/03/05 05:36:11;;;;;;;;;;;3.00;99.90;;;;;;5064268;28;19946;-79
2023/03/05 05:38:36;;;;;;;;;;;3.00;99.90;;;;;;5048231;28;19936;-79
2023/03/05 05:41:06;;;;;;;;;;;2.90;99.90;;;;;;5064193;28;19920;-79
2023/03/05 05:43:32;;;;;;;;;;;2.90;99.90;;;;;;5066446;28;19928;-79
2023/03/05 05:46:01;;;;;;;;;;;2.90;99.90;;;;;;5069308;28;20256;-79
2023/03/05 05:48:28;;;;;;;;;;;2.90;99.90;;;;;;5067876;28;20343;-79
2023/03/05 05:50:53;;;;;;;;;;;3.00;99.90;;;;;;5068045;28;19939;-78
2023/03/05 05:53:19;;;;;;;;;;;2.90;99.90;;;;;;5030026;28;19925;-78
2023/03/05 05:55:44;;;;;;;;;;;2.90;99.90;;;;;;5070403;28;19927;-79
2023/03/05 05:58:10;;;;;;;;;;;2.90;99.90;;;;;;5066716;28;20327;-78
2023/03/05 06:00:35;;;;;;;;;;;2.90;99.90;;;;;;5067700;28;19964;-79
2023/03/05 06:03:01;;;;;;;;;;;2.90;99.90;;;;;;5075797;28;19928;-79
2023/03/05 06:05:27;;;;;;;;;;;2.90;99.90;;;;;;5094703;28;19981;-79
2023/03/05 06:07:52;;;;;;;;;;;2.90;99.90;;;;;;5072490;28;20007;-79
2023/03/05 06:10:17;;;;;;;;;;;2.90;99.90;;;;;;5070769;28;19930;-79
2023/03/05 06:12:43;;;;;;;;;;;2.90;99.90;;;;;;5077407;28;20058;-79
2023/03/05 06:15:09;;;;;;;;;;;2.90;99.90;;;;;;5093027;28;19924;-79
2023/03/05 06:17:34;;;;;;;;;;;2.90;99.90;;;;;;5076314;28;19920;-79
2023/03/05 06:20:00;;;;;;;;;;;2.90;99.90;;;;;;5078318;28;19927;-79
2023/03/05 06:22:25;;;;;;;;;;;2.80;99.90;;;;;;5095300;28;19967;-79
2023/03/05 06:24:51;;;;;;;;;;;2.80;99.90;;;;;;5094489;28;19920;-78
2023/03/05 06:27:16;;;;;;;;;;;2.80;99.90;;;;;;5068078;28;20018;-78
2023/03/05 06:29:42;;;;;;;;;;;2.80;99.90;;;;;;5068909;28;19925;-78
2023/03/05 06:32:07;;;;;;;;;;;2.70;99.90;;;;;;5066198;28;19932;-78
2023/03/05 06:34:33;;;;;;;;;;;2.70;99.90;;;;;;5069490;28;19967;-78
2023/03/05 06:36:59;;;;;;;;;;;2.70;99.90;;;;;;5050644;28;19927;-78
2023/03/05 06:39:24;;;;;;;;;;;2.80;99.90;;;;;;5068095;28;19921;-78
2023/03/05 06:41:50;;;;;;;;;;;2.80;99.90;;;;;;5064777;28;19927;-78
2023/03/05 06:44:16;;;;;;;;;;;2.80;99.90;;;;;;5064859;28;19928;-78
2023/03/05 06:46:41;;;;;;;;;;;2.80;99.90;;;;;;5063950;28;19936;-77
2023/03/05 06:49:08;;;;;;;;;;;2.90;99.90;;;;;;5063770;28;19924;-78
2023/03/05 06:51:34;;;;;;;;;;;2.90;99.90;;;;;;5066392;28;19927;-78
2023/03/05 06:54:01;;;;;;;;;;;3.00;99.90;;;;;;5064769;28;19981;-78
2023/03/05 06:56:27;;;;;;;;;;;3.00;99.90;;;;;;5060990;28;19935;-78
2023/03/05 06:58:52;;;;;;;;;;;3.10;99.90;;;;;;5065506;28;19921;-78
2023/03/05 07:01:18;;;;;;;;;;;3.10;99.90;;;;;;5069117;28;19928;-79
2023/03/05 07:03:47;;;;;;;;;;;3.10;99.90;;;;;;5050261;28;19927;-77
2023/03/05 07:06:13;;;;;;;;;;;3.20;99.90;;;;;;5065445;28;19920;-79
2023/03/05 07:08:39;;;;;;;;;;;3.20;99.90;;;;;;5069742;28;20286;-79
2023/03/05 07:11:14;;;;;;;;;;;3.20;99.90;;;;;;5057577;28;19928;-80
2023/03/05 07:13:40;;;;;;;;;;;3.30;99.90;;;;;;5066747;28;19928;-79
2023/03/05 07:16:07;;;;;;;;;;;3.30;99.90;;;;;;5067813;28;20274;-78
2023/03/05 07:18:33;;;;;;;;;;;3.30;99.90;;;;;;5070448;28;19971;-79
2023/03/05 07:21:02;;;;;;;;;;;3.30;99.90;;;;;;5069506;28;19935;-79
2023/03/05 07:23:28;;;;;;;;;;;3.40;99.90;;;;;;5069489;28;19920;-79
2023/03/05 07:25:53;;;;;;;;;;;3.40;99.90;;;;;;5067745;28;19926;-78
2023/03/05 07:28:18;;;;;;;;;;;3.40;99.90;;;;;;5065892;28;20069;-78
2023/03/05 07:30:44;;;;;;;;;;;3.40;99.90;;;;;;5030313;28;20015;-78
2023/03/05 07:33:10;;;;;;;;;;;3.50;99.90;;;;;;5065415;28;20382;-78
2023/03/05 07:35:38;;;;;;;;;;;3.50;99.90;;;;;;5062667;28;19920;-78
2023/03/05 07:38:03;;;;;;;;;;;3.50;99.90;;;;;;5066098;28;20012;-78
2023/03/05 07:40:29;;;;;;;;;;;3.60;99.90;;;;;;5066256;28;20017;-78
2023/03/05 07:42:55;;;;;;;;;;;3.60;99.90;;;;;;5048476;28;19920;-78
2023/03/05 07:45:20;;;;;;;;;;;3.70;99.90;;;;;;5049482;28;20345;-78
2023/03/05 07:47:46;;;;;;;;;;;3.70;99.90;;;;;;5046750;28;20390;-78
2023/03/05 07:50:11;;;;;;;;;;;3.80;99.90;;;;;;5064491;28;20295;-79
2023/03/05 07:52:37;;;;;;;;;;;3.90;99.90;;;;;;5066357;28;20000;-79
2023/03/05 07:55:02;;;;;;;;;;;4.10;99.90;;;;;;5066765;28;19987;-79
2023/03/05 07:57:28;;;;;;;;;;;4.20;99.90;;;;;;5070560;28;19924;-79
2023/03/05 07:59:53;;;;;;;;;;;4.30;99.90;;;;;;5057486;28;20268;-79
2023/03/05 08:02:20;;;;;;;;;;;4.40;99.90;;;;;;5052299;28;19920;-79
2023/03/05 08:04:45;;;;;;;;;;;4.50;99.90;;;;;;5053859;28;19921;-79
2023/03/05 08:07:13;;;;;;;;;;;4.50;99.90;;;;;;5052890;28;19924;-78
2023/03/05 08:09:38;;;;;;;;;;;4.50;99.90;;;;;;5057886;28;19939;-78
2023/03/05 08:12:04;;;;;;;;;;;4.50;99.90;;;;;;5073720;28;19927;-79
2023/03/05 08:14:29;;;;;;;;;;;4.60;99.90;;;;;;5072151;28;19971;-79
2023/03/05 08:16:55;;;;;;;;;;;4.60;99.90;;;;;;5059727;28;19927;-79
2023/03/05 08:19:20;;;;;;;;;;;4.70;99.90;;;;;;5070731;28;19920;-79
2023/03/05 08:21:46;;;;;;;;;;;4.90;99.90;;;;;;5060571;28;19920;-79
2023/03/05 08:24:12;;;;;;;;;;;4.90;99.90;;;;;;5078668;28;19920;-79
2023/03/05 08:26:38;;;;;;;;;;;5.00;99.90;;;;;;5074460;28;19924;-79
2023/03/05 08:29:04;;;;;;;;;;;5.00;99.90;;;;;;5053985;28;19920;-79
2023/03/05 08:31:30;;;;;;;;;;;5.20;99.90;;;;;;5069660;28;19920;-79
2023/03/05 08:33:56;;;;;;;;;;;5.30;99.90;;;;;;5072933;28;19920;-79
2023/03/05 08:36:22;;;;;;;;;;;5.20;99.90;;;;;;5059853;28;19920;-79
2023/03/05 08:38:48;;;;;;;;;;;5.20;99.90;;;;;;5077932;28;20349;-79
2023/03/05 08:41:14;;;;;;;;;;;5.30;99.90;;;;;;5060203;28;20013;-79
2023/03/05 08:43:40;;;;;;;;;;;5.30;99.90;;;;;;5036552;28;19920;-79
2023/03/05 08:46:05;;;;;;;;;;;5.30;99.90;;;;;;5059766;28;20306;-79
2023/03/05 08:48:31;;;;;;;;;;;5.40;99.90;;;;;;5072606;28;20127;-79
2023/03/05 08:50:57;;;;;;;;;;;5.40;99.90;;;;;;5071484;28;20020;-79
2023/03/05 08:53:23;;;;;;;;;;;5.50;99.90;;;;;;5073789;28;19974;-79
2023/03/05 08:55:55;;;;;;;;;;;5.60;99.90;;;;;;5072512;28;19924;-79
2023/03/05 08:58:20;;;;;;;;;;;5.80;99.90;;;;;;5068169;28;20338;-79
2023/03/05 09:00:46;;;;;;;;;;;5.90;99.90;;;;;;5063525;28;20019;-78
2023/03/05 09:03:12;;;;;;;;;;;5.90;99.90;;;;;;5070632;28;19994;-78
2023/03/05 09:05:37;;;;;;;;;;;6.00;99.90;;;;;;5068385;28;20236;-78
2023/03/05 09:08:03;;;;;;;;;;;6.10;99.90;;;;;;5069860;28;19989;-78
2023/03/05 09:10:28;;;;;;;;;;;6.30;99.90;;;;;;5069914;28;19924;-78
2023/03/05 09:12:54;;;;;;;;;;;6.40;99.90;;;;;;5074279;28;19916;-80
2023/03/05 09:15:19;;;;;;;;;;;6.50;99.90;;;;;;5075036;28;20022;-81
2023/03/05 09:17:45;;;;;;;;;;;6.50;99.90;;;;;;5075513;28;20056;-80
2023/03/05 09:20:12;;;;;;;;;;;6.60;99.90;;;;;;5078783;28;20007;-79
2023/03/05 09:22:37;;;;;;;;;;;6.70;99.90;;;;;;5096253;28;19950;-79
2023/03/05 09:25:03;;;;;;;;;;;6.70;99.90;;;;;;5049778;28;19928;-77
2023/03/05 09:27:31;;;;;;;;;;;6.70;99.90;;;;;;5037870;28;19936;-77
2023/03/05 09:29:57;;;;;;;;;;;6.70;99.90;;;;;;5068184;28;19990;-77
2023/03/05 09:32:22;;;;;;;;;;;6.80;99.90;;;;;;5069055;28;20019;-76
2023/03/05 09:34:48;;;;;;;;;;;6.80;99.90;;;;;;5067592;28;20346;-76
2023/03/05 09:37:13;;;;;;;;;;;6.80;99.90;;;;;;5066567;28;20023;-78
2023/03/05 09:39:39;;;;;;;;;;;6.70;99.90;;;;;;5047746;28;20289;-77
2023/03/05 09:42:26;;;;;;;;;;;6.80;99.90;;;;;;5068410;28;20298;-78
2023/03/05 09:45:11;;;;;;;;;;;6.80;99.90;;;;;;5067558;28;19920;-78
2023/03/05 09:47:55;;;;;;;;;;;6.80;99.90;;;;;;5047546;28;20342;-78
2023/03/05 09:50:30;;;;;;;;;;;6.90;99.90;;;;;;5062219;28;20005;-77
2023/03/05 09:52:59;;;;;;;;;;;7.00;99.90;;;;;;5048740;28;19967;-78
2023/03/05 09:55:28;;;;;;;;;;;6.80;99.90;;;;;;5074054;28;19980;-78
2023/03/05 09:57:56;;;;;;;;;;;6.80;99.90;;;;;;5068319;28;19932;-76
2023/03/05 10:00:21;;;;;;;;;;;6.80;99.90;;;;;;5066454;28;20290;-77
2023/03/05 10:02:50;;;;;;;;;;;6.90;99.90;;;;;;5063946;28;19920;-77
2023/03/05 10:05:38;;;;;;;;;;;6.80;99.90;;;;;;5071924;28;19920;-78
2023/03/05 10:08:04;;;;;;;;;;;6.70;99.90;;;;;;5036657;28;19931;-78
2023/03/05 10:10:41;;;;;;;;;;;6.80;99.90;;;;;;5058793;28;19931;-77
2023/03/05 10:13:12;;;;;;;;;;;6.90;99.90;;;;;;5072598;28;19920;-79
2023/03/05 10:15:38;;;;;;;;;;;7.00;99.90;;;;;;5069521;28;20346;-78
2023/03/05 10:18:09;;;;;;;;;;;7.10;99.90;;;;;;5064813;28;19920;-78
2023/03/05 10:20:58;;;;;;;;;;;7.40;99.90;;;;;;5068584;28;19920;-78
2023/03/05 10:23:41;;;;;;;;;;;7.30;99.90;;;;;;5057058;28;19920;-78
2023/03/05 10:26:06;;;;;;;;;;;7.30;99.90;;;;;;5065452;28;19920;-77
2023/03/05 10:28:38;;;;;;;;;;;7.20;99.90;;;;;;5067544;28;20584;-77
2023/03/05 10:31:10;;;;;;;;;;;7.20;99.90;;;;;;5065251;28;19920;-77
2023/03/05 10:33:46;;;;;;;;;;;7.30;99.90;;;;;;5062440;28;19973;-78
2023/03/05 10:36:27;;;;;;;;;;;7.40;99.90;;;;;;5065442;28;19928;-78
2023/03/05 10:38:53;;;;;;;;;;;7.60;99.90;;;;;;5064846;28;20401;-78
2023/03/05 10:41:19;;;;;;;;;;;7.70;99.90;;;;;;5068212;28;19928;-78
2023/03/05 10:44:03;;;;;;;;;;;7.60;99.90;;;;;;5070893;28;19928;-78
2023/03/05 10:46:31;;;;;;;;;;;7.60;99.90;;;;;;5065433;28;19924;-78
2023/03/05 10:48:58;;;;;;;;;;;7.60;99.90;;;;;;5028186;28;19958;-78
2023/03/05 10:51:35;;;;;;;;;;;7.70;99.90;;;;;;5063872;28;19924;-78
2023/03/05 10:54:11;;;;;;;;;;;7.70;99.90;;;;;;5042681;28;20594;-78
2023/03/05 10:56:36;;;;;;;;;;;7.70;99.90;;;;;;5061825;28;20573;-78
2023/03/05 10:59:02;;;;;;;;;;;7.70;99.90;;;;;;5065266;28;19925;-78
2023/03/05 11:01:28;;;;;;;;;;;7.80;99.90;;;;;;5063634;28;19927;-78
2023/03/05 11:03:55;;;;;;;;;;;7.80;99.90;;;;;;5045029;28;19927;-78
2023/03/05 11:06:50;;;;;;;;;;;7.80;99.90;;;;;;5030161;28;20004;-78
2023/03/05 11:09:21;;;;;;;;;;;7.80;99.90;;;;;;5047507;28;19932;-77
2023/03/05 11:12:05;;;;;;;;;;;7.80;99.90;;;;;;5071635;28;19927;-77
2023/03/05 11:14:34;;;;;;;;;;;7.70;99.90;;;;;;5034907;28;19999;-77
2023/03/05 11:17:01;;;;;;;;;;;7.60;99.90;;;;;;5047417;28;19921;-77
2023/03/05 11:19:34;;;;;;;;;;;7.70;99.90;;;;;;5048481;28;20323;-77
2023/03/05 11:22:09;;;;;;;;;;;8.00;99.90;;;;;;5065665;28;19950;-77
2023/03/05 11:24:36;;;;;;;;;;;8.10;99.90;;;;;;5025729;28;19932;-77
2023/03/05 11:27:01;;;;;;;;;;;8.10;99.90;;;;;;5066681;28;20382;-77
2023/03/05 11:29:31;;;;;;;;;;;8.20;99.90;;;;;;5063078;28;19994;-77
2023/03/05 11:32:14;;;;;;;;;;;8.30;99.90;;;;;;5066020;28;19924;-76
2023/03/05 11:34:39;;;;;;;;;;;8.50;99.90;;;;;;5046668;28;22026;-77
2023/03/05 11:37:05;;;;;;;;;;;8.30;99.90;;;;;;5066759;28;19927;-77
2023/03/05 11:39:34;;;;;;;;;;;8.40;99.90;;;;;;5044720;28;19920;-77
2023/03/05 11:42:01;;;;;;;;;;;8.60;99.90;;;;;;5066149;28;19963;-77
2023/03/05 11:44:45;;;;;;;;;;;8.60;99.90;;;;;;5061735;28;20277;-77
2023/03/05 11:47:27;;;;;;;;;;;8.90;99.90;;;;;;5065636;28;19964;-76
2023/03/05 11:49:57;;;;;;;;;;;9.10;99.90;;;;;;5044094;28;20363;-76
2023/03/05 11:52:31;;;;;;;;;;;9.00;99.90;;;;;;5059893;28;19931;-77
2023/03/05 11:54:59;;;;;;;;;;;8.90;99.90;;;;;;5065779;28;19928;-77
2023/03/05 11:57:25;;;;;;;;;;;8.60;99.90;;;;;;5067787;28;19925;-77
2023/03/05 11:59:52;;;;;;;;;;;8.30;99.90;;;;;;5063785;28;19950;-77
2023/03/05 12:02:20;;;;;;;;;;;8.20;99.90;;;;;;5048554;28;19920;-76
2023/03/05 12:04:46;;;;;;;;;;;7.90;99.90;;;;;;5032000;28;19920;-76
2023/03/05 12:07:14;;;;;;;;;;;7.80;99.90;;;;;;5062586;28;20343;-76
2023/03/05 12:09:41;;;;;;;;;;;7.50;99.90;;;;;;5069135;28;19925;-76
2023/03/05 12:12:13;;;;;;;;;;;7.20;99.90;;;;;;5050663;28;20314;-76
2023/03/05 12:14:47;;;;;;;;;;;7.10;99.90;;;;;;5068892;28;19924;-76
2023/03/05 12:17:17;;;;;;;;;;;7.00;99.90;;;;;;5049005;28;20299;-76
2023/03/05 12:19:50;;;;;;;;;;;6.90;99.90;;;;;;5064586;28;19920;-76
2023/03/05 12:22:18;;;;;;;;;;;6.90;99.90;;;;;;5066959;28;19927;-76
2023/03/05 12:24:44;;;;;;;;;;;6.90;99.90;;;;;;5067024;28;19921;-77
2023/03/05 12:27:13;;;;;;;;;;;7.00;99.90;;;;;;5066289;28;19921;-76
2023/03/05 12:29:44;;;;;;;;;;;7.10;99.90;;;;;;5064254;28;19932;-76
2023/03/05 12:32:22;;;;;;;;;;;7.00;99.90;;;;;;5062569;28;19924;-76
2023/03/05 12:34:48;;;;;;;;;;;7.20;99.90;;;;;;5063539;28;20023;-76
2023/03/05 12:37:20;;;;;;;;;;;7.30;99.90;;;;;;5063597;28;20294;-77
2023/03/05 12:39:48;;;;;;;;;;;7.50;99.90;;;;;;5066544;28;20024;-77
2023/03/05 12:42:29;;;;;;;;;;;7.50;99.90;;;;;;5053327;28;19951;-76
2023/03/05 12:45:17;;;;;;;;;;;7.70;99.90;;;;;;5062550;28;19921;-78
2023/03/05 12:47:44;;;;;;;;;;;7.90;99.90;;;;;;5063604;28;20371;-78
2023/03/05 12:50:36;;;;;;;;;;;7.90;99.90;;;;;;5066587;28;19970;-78
2023/03/05 12:53:16;;;;;;;;;;;8.10;99.90;;;;;;5013247;28;19920;-78
2023/03/05 12:55:44;;;;;;;;;;;8.30;99.90;;;;;;5053114;28;19921;-78
2023/03/05 12:58:11;;;;;;;;;;;8.40;99.90;;;;;;5063724;28;19970;-78
2023/03/05 13:00:37;;;;;;;;;;;8.50;99.90;;;;;;5075777;28;19927;-78
2023/03/05 13:03:07;;;;;;;;;;;8.70;99.90;;;;;;5075819;28;19928;-78
2023/03/05 13:05:46;;;;;;;;;;;8.80;99.90;;;;;;5076178;28;20008;-78
2023/03/05 13:08:20;;;;;;;;;;;8.90;99.90;;;;;;5075624;28;19927;-78
2023/03/05 13:11:06;;;;;;;;;;;9.10;99.90;;;;;;5055242;28;20019;-78
2023/03/05 13:13:36;;;;;;;;;;;9.20;99.90;;;;;;5056068;28;19924;-78
2023/03/05 13:16:02;;;;;;;;;;;9.40;99.90;;;;;;5075655;28;20019;-78
2023/03/05 13:18:29;;;;;;;;;;;9.30;99.90;;;;;;5079378;28;19927;-78
2023/03/05 13:21:03;;;;;;;;;;;9.40;99.90;;;;;;5096297;28;19920;-78
2023/03/05 13:23:29;;;;;;;;;;;9.50;99.90;;;;;;5076190;28;20262;-78
2023/03/05 13:26:02;;;;;;;;;;;9.60;99.90;;;;;;5073966;28;20339;-78
2023/03/05 13:28:31;;;;;;;;;;;9.70;99.90;;;;;;5075326;28;19920;-78
2023/03/05 13:30:58;;;;;;;;;;;9.70;99.90;;;;;;5075462;28;20003;-78
2023/03/05 13:33:28;;;;;;;;;;;9.50;99.90;;;;;;5075571;28;20331;-78
2023/03/05 13:35:54;;;;;;;;;;;9.40;99.90;;;;;;5083044;28;20003;-78
2023/03/05 13:38:21;;;;;;;;;;;9.30;99.90;;;;;;5083072;28;20017;-78
2023/03/05 13:40:59;;;;;;;;;;;9.10;99.90;;;;;;5072574;28;19985;-78
2023/03/05 13:43:25;;;;;;;;;;;9.00;99.90;;;;;;5071176;28;19927;-78
2023/03/05 13:45:58;;;;;;;;;;;8.90;99.90;;;;;;5034935;28;19921;-78
2023/03/05 13:48:25;;;;;;;;;;;8.70;99.90;;;;;;5052324;28;19920;-82
2023/03/05 13:50:54;;;;;;;;;;;8.50;99.90;;;;;;5059565;28;19921;-77
2023/03/05 13:53:23;;;;;;;;;;;8.50;99.90;;;;;;5073630;28;20011;-77
2023/03/05 13:55:50;;;;;;;;;;;8.40;99.90;;;;;;5070290;28;19928;-77
2023/03/05 13:58:34;;;;;;;;;;;8.30;99.90;;;;;;5048686;28;20444;-77
2023/03/05 14:01:11;;;;;;;;;;;8.30;99.90;;;;;;5057080;28;20025;-77
2023/03/05 14:03:36;;;;;;;;;;;8.20;99.90;;;;;;5035820;28;20387;-78
2023/03/05 14:06:05;;;;;;;;;;;8.20;99.90;;;;;;5066222;28;19927;-77
2023/03/05 14:08:32;;;;;;;;;;;8.20;99.90;;;;;;5074457;28;19921;-78
2023/03/05 14:10:58;;;;;;;;;;;8.00;99.90;;;;;;5052809;28;19995;-77
2023/03/05 14:13:26;;;;;;;;;;;7.80;99.90;;;;;;5056647;28;19925;-76
2023/03/05 14:16:04;;;;;;;;;;;7.60;99.90;;;;;;5056942;28;19924;-76
2023/03/05 14:18:29;;;;;;;;;;;7.50;99.90;;;;;;5074859;28;19978;-77
2023/03/05 14:20:58;;;;;;;;;;;7.40;99.90;;;;;;5074367;28;20366;-77
2023/03/05 14:23:43;;;;;;;;;;;7.30;99.90;;;;;;5039966;28;19920;-77
2023/03/05 14:26:21;;;;;;;;;;;7.20;99.90;;;;;;5074290;28;20018;-77
2023/03/05 14:28:51;;;;;;;;;;;7.20;99.90;;;;;;5053558;28;19932;-77
2023/03/05 14:31:18;;;;;;;;;;;7.10;99.90;;;;;;5068271;28;20340;-77
2023/03/05 14:33:43;;;;;;;;;;;7.10;99.90;;;;;;5074302;28;20290;-77
2023/03/05 14:36:09;;;;;;;;;;;7.00;99.90;;;;;;5073254;28;19930;-77